Terminal Aerodrome Forecast
Issued by NWS

Home | Current Version | Previous Version | Text Only | Print | Product List | Glossary On
Versions: 1 2 3 4 5 6 7 8 9 10 11 12 13 14 15 16 17 18 19 20 21 22 23 24 25 26
000
FTAK31 PANC 191739
TAFACD
TAF
PACD 191739Z 1918/2018 31036G48KT P6SM -SHRASN FEW010 SCT025 BKN060
     FM192100 31046G62KT 5SM -SHRASN BR SCT015 BKN025 OVC050
     FM201000 32042G52KT 4SM -SHSN BR SCT008 BKN015 OVC025=

USA.gov is the U.S. government's official web portal to all federal, state and local government web resources and services.